Currently 51°F in Pinon Hills, California, USA
51°F
51°F / 37°F
6 mph SE
0.00"
Friday, November 27, 2020 12:36 PM PST

Pinon Hills, California Weather Summary
Last 36 Hours

Temperature Winds Hourly Humidity Dewpoint
Time Report Norm Report Norm Max Gusts Precip. Rpt. Norm Rpt. Norm Pressure
1Fri 12:36 PM  50.9°F  56°F  6 mph SE  4 mph  9 mph  0.00"  18%  40%  7°F  31°F  30.36"
2Fri 12:28 PM  51.4°F  56°F  1 mph NE  4 mph  9 mph  ----  17%  40%  6°F  31°F  30.36"
Fri 12:00 PM  50.2°F  56°F  2 mph SE  4 mph  10 mph  0.00"  19%  41%  7°F  31°F  30.37"
Fri 11:00 AM  48.0°F  55°F  3 mph SE  4 mph  12 mph  0.00"  19%  43%  5°F  32°F  30.40"
Fri 10:00 AM  46.5°F  53°F  4 mph E  4 mph  13 mph  0.00"  21%  44%  7°F  31°F  30.42"
Fri 09:00 AM  45.5°F  52°F  1 mph SE  3 mph  15 mph  0.00"  20%  46%  4°F  31°F  30.41"
Fri 08:00 AM  43.4°F  49°F  4 mph SE  2 mph  16 mph  0.00"  19%  50%  2°F  30°F  30.40"
Fri 07:00 AM  40.1°F  44°F  3 mph S  2 mph  11 mph  0.00"  21%  56%  1°F  29°F  30.39"
Fri 06:00 AM  37.8°F  44°F  1 mph SE  3 mph  9 mph  0.00"  26%  56%  4°F  28°F  30.37"
Fri 05:00 AM  40.0°F  44°F  2 mph SE  2 mph  9 mph  0.00"  26%  54%  7°F  28°F  30.36"
Fri 04:00 AM  39.4°F  44°F  3 mph SW  3 mph  11 mph  0.00"  29%  55%  8°F  28°F  30.36"
3Fri 03:04 AM  36.8°F  44°F  2 mph S  3 mph  6 mph  ----  34%  54%  10°F  28°F  30.35"
Fri 03:00 AM  37.2°F  44°F  2 mph S  3 mph  11 mph  0.00"  34%  54%  10°F  28°F  30.35"
Fri 02:00 AM  38.9°F  45°F  6 mph SE  3 mph  13 mph  0.00"  32%  53%  10°F  28°F  30.37"
Fri 01:00 AM  38.0°F  45°F  6 mph SE  3 mph  10 mph  0.00"  33%  53%  10°F  28°F  30.35"
Fri 12:00 AM  38.2°F  45°F  4 mph E  3 mph  8 mph  0.00"  34%  52%  11°F  28°F  30.34"
Thu 11:00 PM  38.1°F  45°F  1 mph E  3 mph  7 mph  0.00"  35%  52%  11°F  28°F  30.34"
Thu 10:00 PM  37.3°F  46°F  4 mph E  3 mph  8 mph  0.00"  36%  52%  12°F  28°F  30.34"
Thu 09:00 PM  38.4°F  47°F  2 mph E  3 mph  7 mph  0.00"  34%  52%  11°F  29°F  30.34"
Thu 08:00 PM  36.9°F  47°F  3 mph E  2 mph  6 mph  0.00"  36%  51%  11°F  29°F  30.31"
Thu 07:00 PM  38.6°F  47°F  3 mph E  2 mph  8 mph  0.00"  35%  50%  12°F  29°F  30.30"
Thu 06:00 PM  38.8°F  48°F  2 mph E  2 mph  6 mph  0.00"  36%  50%  13°F  29°F  30.29"
Thu 05:00 PM  41.7°F  49°F  3 mph E  3 mph  11 mph  0.00"  33%  48%  13°F  29°F  30.26"
Thu 04:00 PM  45.5°F  54°F  6 mph E  3 mph  13 mph  0.00"  29%  42%  14°F  31°F  30.24"
Thu 03:00 PM  47.9°F  57°F  6 mph NE  4 mph  15 mph  0.00"  28%  39%  15°F  31°F  30.23"
Thu 02:00 PM  48.6°F  57°F  4 mph NE  4 mph  15 mph  0.00"  27%  38%  15°F  31°F  30.23"
Thu 01:00 PM  47.9°F  57°F  4 mph E  4 mph  12 mph  0.00"  33%  38%  19°F  31°F  30.23"
Thu 12:00 PM  47.2°F  57°F  3 mph E  4 mph  13 mph  0.00"  40%  39%  23°F  31°F  30.25"
Thu 11:00 AM  46.0°F  56°F  5 mph SE  4 mph  15 mph  0.00"  40%  41%  22°F  31°F  30.27"
Thu 10:00 AM  46.2°F  54°F  6 mph SE  4 mph  11 mph  0.00"  44%  43%  24°F  31°F  30.26"
Thu 09:00 AM  46.1°F  52°F  4 mph E  3 mph  12 mph  0.00"  46%  45%  25°F  31°F  30.26"
Thu 08:00 AM  40.7°F  50°F  calm  2 mph  3 mph  0.00"  65%  49%  29°F  30°F  30.24"
Thu 07:00 AM  33.6°F  45°F  3 mph SW  2 mph  6 mph  0.00"  73%  55%  26°F  29°F  30.23"
Thu 06:00 AM  36.0°F  44°F  3 mph SW  3 mph  7 mph  0.00"  66%  55%  25°F  28°F  30.21"
Thu 05:00 AM  36.6°F  45°F  2 mph SW  3 mph  8 mph  0.00"  72%  54%  28°F  28°F  30.19"
Thu 04:00 AM  35.9°F  45°F  3 mph SW  3 mph  13 mph  0.00"  84%  54%  31°F  28°F  30.17"
Thu 03:00 AM  36.1°F  45°F  6 mph NW  3 mph  9 mph  0.00"  87%  53%  33°F  28°F  30.17"
Thu 02:00 AM  37.5°F  45°F  1 mph NW  3 mph  14 mph  0.00"  83%  52%  33°F  28°F  30.18"
Thu 01:00 AM  34.4°F  46°F  3 mph SW  3 mph  4 mph  0.00"  87%  52%  31°F  28°F  30.16"

  1. Current weather data. No green row appears if the current weather data is also the high or low for the current day.
  2. High temperature for the current day.
  3. Low temperature for the current day.

The Pinon Hills, California weather pages are a service of WeatherCurrents.
Copyright ©2020  WeatherCurrents. All rights reserved. - Submit questions and comments - Privacy Policy

This page automatically refreshes every 10 minutes.